sensor_id;sensor_type;location;lat;lon;timestamp;pressure;altitude;pressure_sealevel;temperature;humidity
14204;BME280;7185;51.854;6.622;2023-04-25T00:01:28;100666.50;;;10.63;77.97
14204;BME280;7185;51.854;6.622;2023-04-25T00:04:01;100678.94;;;10.51;77.94
14204;BME280;7185;51.854;6.622;2023-04-25T00:06:34;100673.19;;;10.28;79.06
14204;BME280;7185;51.854;6.622;2023-04-25T00:09:06;100677.09;;;10.57;77.94
14204;BME280;7185;51.854;6.622;2023-04-25T00:11:40;100671.72;;;10.66;78.03
14204;BME280;7185;51.854;6.622;2023-04-25T00:14:12;100678.00;;;10.56;78.29
14204;BME280;7185;51.854;6.622;2023-04-25T00:16:43;100676.88;;;10.69;77.86
14204;BME280;7185;51.854;6.622;2023-04-25T00:19:16;100671.63;;;10.71;78.18
14204;BME280;7185;51.854;6.622;2023-04-25T00:21:48;100665.88;;;10.48;78.84
14204;BME280;7185;51.854;6.622;2023-04-25T00:24:20;100661.44;;;10.54;78.55
14204;BME280;7185;51.854;6.622;2023-04-25T00:26:51;100663.84;;;10.64;78.08
14204;BME280;7185;51.854;6.622;2023-04-25T00:29:23;100666.50;;;10.63;78.36
14204;BME280;7185;51.854;6.622;2023-04-25T00:31:54;100665.47;;;10.72;77.64
14204;BME280;7185;51.854;6.622;2023-04-25T00:34:27;100674.06;;;10.81;77.67
14204;BME280;7185;51.854;6.622;2023-04-25T00:36:59;100681.47;;;10.58;78.37
14204;BME280;7185;51.854;6.622;2023-04-25T00:39:32;100681.28;;;10.68;77.80
14204;BME280;7185;51.854;6.622;2023-04-25T00:42:03;100688.19;;;10.73;77.69
14204;BME280;7185;51.854;6.622;2023-04-25T00:44:37;100690.81;;;10.74;77.91
14204;BME280;7185;51.854;6.622;2023-04-25T00:47:10;100686.38;;;10.78;77.38
14204;BME280;7185;51.854;6.622;2023-04-25T00:49:44;100686.25;;;10.84;77.08
14204;BME280;7185;51.854;6.622;2023-04-25T00:52:15;100689.00;;;10.78;77.41
14204;BME280;7185;51.854;6.622;2023-04-25T00:54:47;100692.81;;;10.60;78.27
14204;BME280;7185;51.854;6.622;2023-04-25T00:57:19;100699.41;;;10.26;78.56
14204;BME280;7185;51.854;6.622;2023-04-25T00:59:51;100700.03;;;10.45;78.01
14204;BME280;7185;51.854;6.622;2023-04-25T01:02:23;100699.66;;;10.67;76.66
14204;BME280;7185;51.854;6.622;2023-04-25T01:04:57;100683.97;;;10.64;77.11
14204;BME280;7185;51.854;6.622;2023-04-25T01:07:29;100692.84;;;10.57;77.39
14204;BME280;7185;51.854;6.622;2023-04-25T01:10:01;100693.53;;;10.66;76.70
14204;BME280;7185;51.854;6.622;2023-04-25T01:12:33;100698.16;;;10.54;76.51
14204;BME280;7185;51.854;6.622;2023-04-25T01:15:06;100697.34;;;10.50;76.20
14204;BME280;7185;51.854;6.622;2023-04-25T01:17:37;100707.00;;;10.46;76.12
14204;BME280;7185;51.854;6.622;2023-04-25T01:20:13;100709.69;;;10.42;75.84
14204;BME280;7185;51.854;6.622;2023-04-25T01:22:47;100707.81;;;10.48;75.30
14204;BME280;7185;51.854;6.622;2023-04-25T01:25:19;100701.59;;;10.57;75.51
14204;BME280;7185;51.854;6.622;2023-04-25T01:27:50;100708.63;;;10.54;75.26
14204;BME280;7185;51.854;6.622;2023-04-25T01:30:23;100707.81;;;10.48;75.60
14204;BME280;7185;51.854;6.622;2023-04-25T01:32:55;100709.34;;;10.63;75.46
14204;BME280;7185;51.854;6.622;2023-04-25T01:35:27;100714.53;;;10.66;76.12
14204;BME280;7185;51.854;6.622;2023-04-25T01:38:00;100704.59;;;10.86;74.88
14204;BME280;7185;51.854;6.622;2023-04-25T01:40:33;100710.97;;;10.69;76.18
14204;BME280;7185;51.854;6.622;2023-04-25T01:43:06;100715.31;;;10.73;75.87
14204;BME280;7185;51.854;6.622;2023-04-25T01:45:38;100726.81;;;10.63;76.79
14204;BME280;7185;51.854;6.622;2023-04-25T01:48:12;100724.53;;;10.41;77.14
14204;BME280;7185;51.854;6.622;2023-04-25T01:50:44;100723.44;;;10.55;76.99
14204;BME280;7185;51.854;6.622;2023-04-25T01:53:17;100731.31;;;10.55;76.91
14204;BME280;7185;51.854;6.622;2023-04-25T01:55:49;100736.38;;;10.67;76.42
14204;BME280;7185;51.854;6.622;2023-04-25T01:58:21;100739.31;;;10.47;76.81
14204;BME280;7185;51.854;6.622;2023-04-25T02:00:52;100740.91;;;10.56;76.78
14204;BME280;7185;51.854;6.622;2023-04-25T02:03:24;100736.63;;;10.51;76.89
14204;BME280;7185;51.854;6.622;2023-04-25T02:05:55;100739.34;;;10.44;77.54
14204;BME280;7185;51.854;6.622;2023-04-25T02:08:28;100745.56;;;10.35;77.83
14204;BME280;7185;51.854;6.622;2023-04-25T02:11:00;100735.09;;;10.35;78.21
14204;BME280;7185;51.854;6.622;2023-04-25T02:13:33;100738.47;;;10.45;78.48
14204;BME280;7185;51.854;6.622;2023-04-25T02:16:05;100747.38;;;10.31;78.67
14204;BME280;7185;51.854;6.622;2023-04-25T02:18:37;100749.09;;;10.32;79.14
14204;BME280;7185;51.854;6.622;2023-04-25T02:21:09;100751.78;;;10.28;79.54
14204;BME280;7185;51.854;6.622;2023-04-25T02:23:43;100759.63;;;10.31;79.12
14204;BME280;7185;51.854;6.622;2023-04-25T02:26:16;100761.34;;;10.32;79.08
14204;BME280;7185;51.854;6.622;2023-04-25T02:28:47;100764.50;;;9.93;79.21
14204;BME280;7185;51.854;6.622;2023-04-25T02:31:19;100768.16;;;9.78;79.85
14204;BME280;7185;51.854;6.622;2023-04-25T02:33:51;100783.66;;;9.97;79.51
14204;BME280;7185;51.854;6.622;2023-04-25T02:36:22;100770.75;;;9.81;77.97
14204;BME280;7185;51.854;6.622;2023-04-25T02:38:55;100766.50;;;9.72;76.37
14204;BME280;7185;51.854;6.622;2023-04-25T02:41:27;100767.19;;;9.88;76.02
14204;BME280;7185;51.854;6.622;2023-04-25T02:43:59;100777.75;;;9.82;76.19
14204;BME280;7185;51.854;6.622;2023-04-25T02:46:30;100783.00;;;9.79;75.91
14204;BME280;7185;51.854;6.622;2023-04-25T02:49:02;100774.38;;;9.72;75.19
14204;BME280;7185;51.854;6.622;2023-04-25T02:51:33;100769.97;;;9.75;76.23
14204;BME280;7185;51.854;6.622;2023-04-25T02:54:06;100775.41;;;9.57;76.49
14204;BME280;7185;51.854;6.622;2023-04-25T02:56:38;100769.25;;;9.62;77.03
14204;BME280;7185;51.854;6.622;2023-04-25T02:59:09;100770.94;;;9.66;76.65
14204;BME280;7185;51.854;6.622;2023-04-25T03:01:41;100772.75;;;9.61;77.26
14204;BME280;7185;51.854;6.622;2023-04-25T03:04:13;100769.28;;;9.55;77.92
14204;BME280;7185;51.854;6.622;2023-04-25T03:06:44;100757.91;;;9.61;78.21
14204;BME280;7185;51.854;6.622;2023-04-25T03:09:17;100771.00;;;9.60;78.42
14204;BME280;7185;51.854;6.622;2023-04-25T03:11:49;100770.97;;;9.63;78.99
14204;BME280;7185;51.854;6.622;2023-04-25T03:14:20;100771.03;;;9.56;79.38
14204;BME280;7185;51.854;6.622;2023-04-25T03:16:52;100778.00;;;9.61;79.54
14204;BME280;7185;51.854;6.622;2023-04-25T03:19:23;100773.66;;;9.56;79.92
14204;BME280;7185;51.854;6.622;2023-04-25T03:21:55;100769.28;;;9.55;80.24
14204;BME280;7185;51.854;6.622;2023-04-25T03:24:28;100771.03;;;9.56;80.54
14204;BME280;7185;51.854;6.622;2023-04-25T03:27:00;100771.03;;;9.56;80.99
14204;BME280;7185;51.854;6.622;2023-04-25T03:29:32;100778.00;;;9.57;80.69
14204;BME280;7185;51.854;6.622;2023-04-25T03:32:03;100765.84;;;9.53;81.13
14204;BME280;7185;51.854;6.622;2023-04-25T03:34:35;100774.41;;;9.66;81.07
14204;BME280;7185;51.854;6.622;2023-04-25T03:37:07;100783.13;;;9.68;81.00
14204;BME280;7185;51.854;6.622;2023-04-25T03:39:40;100781.31;;;9.75;80.49
14204;BME280;7185;51.854;6.622;2023-04-25T03:42:11;100774.28;;;9.77;80.43
14204;BME280;7185;51.854;6.622;2023-04-25T03:44:43;100781.31;;;9.73;80.71
14204;BME280;7185;51.854;6.622;2023-04-25T03:47:15;100785.66;;;9.78;80.20
14204;BME280;7185;51.854;6.622;2023-04-25T03:49:46;100787.47;;;9.71;80.56
14204;BME280;7185;51.854;6.622;2023-04-25T03:52:19;100793.66;;;9.64;80.71
14204;BME280;7185;51.854;6.622;2023-04-25T03:54:52;100791.03;;;9.65;80.77
14204;BME280;7185;51.854;6.622;2023-04-25T03:57:24;100791.09;;;9.61;81.14
14204;BME280;7185;51.854;6.622;2023-04-25T03:59:55;100794.75;;;9.43;81.19
14204;BME280;7185;51.854;6.622;2023-04-25T04:02:27;100793.69;;;9.61;80.73
14204;BME280;7185;51.854;6.622;2023-04-25T04:04:59;100793.78;;;9.51;80.92
14204;BME280;7185;51.854;6.622;2023-04-25T04:07:30;100799.00;;;9.54;80.77
14204;BME280;7185;51.854;6.622;2023-04-25T04:10:05;100799.03;;;9.51;80.18
14204;BME280;7185;51.854;6.622;2023-04-25T04:12:37;100806.91;;;9.50;80.56
14204;BME280;7185;51.854;6.622;2023-04-25T04:15:10;100805.94;;;9.59;80.31
14204;BME280;7185;51.854;6.622;2023-04-25T04:17:42;100808.63;;;9.52;80.52
14204;BME280;7185;51.854;6.622;2023-04-25T04:20:13;100819.97;;;9.48;79.91
14204;BME280;7185;51.854;6.622;2023-04-25T04:22:46;100824.34;;;9.51;80.15
14204;BME280;7185;51.854;6.622;2023-04-25T04:25:19;100822.59;;;9.48;79.78
14204;BME280;7185;51.854;6.622;2023-04-25T04:27:51;100819.13;;;9.48;79.96
14204;BME280;7185;51.854;6.622;2023-04-25T04:30:24;100821.66;;;9.55;79.71
14204;BME280;7185;51.854;6.622;2023-04-25T04:32:59;100817.38;;;9.47;79.71
14204;BME280;7185;51.854;6.622;2023-04-25T04:35:31;100817.31;;;9.53;79.63
14204;BME280;7185;51.854;6.622;2023-04-25T04:38:03;100816.31;;;9.65;79.17
14204;BME280;7185;51.854;6.622;2023-04-25T04:40:36;100829.47;;;9.60;78.78
14204;BME280;7185;51.854;6.622;2023-04-25T04:43:08;100833.78;;;9.63;78.34
14204;BME280;7185;51.854;6.622;2023-04-25T04:45:40;100828.59;;;9.60;78.85
14204;BME280;7185;51.854;6.622;2023-04-25T04:48:11;100834.84;;;9.48;78.98
14204;BME280;7185;51.854;6.622;2023-04-25T04:50:44;100840.03;;;9.52;78.25
14204;BME280;7185;51.854;6.622;2023-04-25T04:53:16;100849.63;;;9.53;78.21
14204;BME280;7185;51.854;6.622;2023-04-25T04:55:49;100846.16;;;9.48;78.95
14204;BME280;7185;51.854;6.622;2023-04-25T04:58:21;100846.06;;;9.57;78.96
14204;BME280;7185;51.854;6.622;2023-04-25T05:00:53;100844.44;;;9.47;79.06
14204;BME280;7185;51.854;6.622;2023-04-25T05:03:25;100856.63;;;9.48;79.02
14204;BME280;7185;51.854;6.622;2023-04-25T05:05:57;100856.41;;;9.70;78.53
14204;BME280;7185;51.854;6.622;2023-04-25T05:08:28;100866.91;;;9.68;78.36
14204;BME280;7185;51.854;6.622;2023-04-25T05:13:34;100879.00;;;9.80;77.89
14204;BME280;7185;51.854;6.622;2023-04-25T05:16:07;100880.75;;;9.81;78.00
14204;BME280;7185;51.854;6.622;2023-04-25T05:18:38;100889.94;;;9.34;79.06
14204;BME280;7185;51.854;6.622;2023-04-25T05:21:14;100890.91;;;9.22;78.46
14204;BME280;7185;51.854;6.622;2023-04-25T05:23:46;100886.63;;;9.08;78.70
14204;BME280;7185;51.854;6.622;2023-04-25T05:26:18;100895.50;;;8.87;79.03
14204;BME280;7185;51.854;6.622;2023-04-25T05:28:52;100888.31;;;9.14;78.43
14204;BME280;7185;51.854;6.622;2023-04-25T05:31:23;100888.25;;;9.27;78.02
14204;BME280;7185;51.854;6.622;2023-04-25T05:33:55;100884.72;;;9.31;77.54
14204;BME280;7185;51.854;6.622;2023-04-25T05:36:26;100882.09;;;9.28;77.16
14204;BME280;7185;51.854;6.622;2023-04-25T05:38:58;100886.47;;;9.27;77.18
14204;BME280;7185;51.854;6.622;2023-04-25T05:41:30;100902.16;;;9.32;77.77
14204;BME280;7185;51.854;6.622;2023-04-25T05:44:03;100908.09;;;9.49;76.15
14204;BME280;7185;51.854;6.622;2023-04-25T05:46:34;100911.53;;;9.56;76.05
14204;BME280;7185;51.854;6.622;2023-04-25T05:49:06;100916.00;;;9.46;75.01
14204;BME280;7185;51.854;6.622;2023-04-25T05:51:38;100913.19;;;9.68;74.33
14204;BME280;7185;51.854;6.622;2023-04-25T05:54:09;100922.81;;;9.63;73.62
14204;BME280;7185;51.854;6.622;2023-04-25T05:56:41;100924.59;;;9.57;73.31
14204;BME280;7185;51.854;6.622;2023-04-25T05:59:14;100936.69;;;9.71;73.43
14204;BME280;7185;51.854;6.622;2023-04-25T06:01:45;100938.56;;;9.60;73.03
14204;BME280;7185;51.854;6.622;2023-04-25T06:04:17;100943.72;;;9.66;72.33
14204;BME280;7185;51.854;6.622;2023-04-25T06:06:49;100939.44;;;9.59;73.26
14204;BME280;7185;51.854;6.622;2023-04-25T06:09:21;100947.28;;;9.55;73.90
14204;BME280;7185;51.854;6.622;2023-04-25T06:11:52;100944.63;;;9.65;73.08
14204;BME280;7185;51.854;6.622;2023-04-25T06:14:25;100949.03;;;9.56;74.23
14204;BME280;7185;51.854;6.622;2023-04-25T06:16:57;100944.44;;;9.85;73.98
14204;BME280;7185;51.854;6.622;2023-04-25T06:19:28;100947.03;;;9.86;73.58
14204;BME280;7185;51.854;6.622;2023-04-25T06:22:03;100941.03;;;9.73;73.66
14204;BME280;7185;51.854;6.622;2023-04-25T06:24:35;100950.63;;;9.78;74.06
14204;BME280;7185;51.854;6.622;2023-04-25T06:27:06;100951.25;;;10.01;74.59
14204;BME280;7185;51.854;6.622;2023-04-25T06:29:39;100955.63;;;9.98;73.67
14204;BME280;7185;51.854;6.622;2023-04-25T06:32:11;100955.47;;;10.16;73.13
14204;BME280;7185;51.854;6.622;2023-04-25T06:34:42;100959.84;;;10.14;72.89
14204;BME280;7185;51.854;6.622;2023-04-25T06:37:14;100957.13;;;10.24;72.72
14204;BME280;7185;51.854;6.622;2023-04-25T06:39:46;100952.78;;;10.19;72.15
14204;BME280;7185;51.854;6.622;2023-04-25T06:42:17;100951.69;;;10.44;71.65
14204;BME280;7185;51.854;6.622;2023-04-25T06:44:51;100955.31;;;10.32;71.93
14204;BME280;7185;51.854;6.622;2023-04-25T06:47:22;100969.31;;;10.28;71.38
14204;BME280;7185;51.854;6.622;2023-04-25T06:49:54;100964.84;;;10.36;71.08
14204;BME280;7185;51.854;6.622;2023-04-25T06:52:27;100966.44;;;10.52;71.17
14204;BME280;7185;51.854;6.622;2023-04-25T06:54:58;100964.72;;;10.48;71.32
14204;BME280;7185;51.854;6.622;2023-04-25T06:57:30;100973.56;;;10.43;70.08
14204;BME280;7185;51.854;6.622;2023-04-25T07:00:04;100974.50;;;10.37;71.21
14204;BME280;7185;51.854;6.622;2023-04-25T07:02:39;100974.59;;;10.25;71.02
14204;BME280;7185;51.854;6.622;2023-04-25T07:05:15;100974.44;;;10.40;70.29
14204;BME280;7185;51.854;6.622;2023-04-25T07:07:47;100977.97;;;10.36;69.14
14204;BME280;7185;51.854;6.622;2023-04-25T07:10:18;100981.34;;;10.47;68.91
14204;BME280;7185;51.854;6.622;2023-04-25T07:12:51;100986.47;;;10.60;69.18
14204;BME280;7185;51.854;6.622;2023-04-25T07:15:24;100985.41;;;10.75;68.24
14204;BME280;7185;51.854;6.622;2023-04-25T07:17:56;100981.84;;;10.79;67.00
14204;BME280;7185;51.854;6.622;2023-04-25T07:20:27;100990.47;;;10.87;66.88
14204;BME280;7185;51.854;6.622;2023-04-25T07:23:01;100992.19;;;10.91;66.18
14204;BME280;7185;51.854;6.622;2023-04-25T07:25:33;101002.59;;;10.97;67.27
14204;BME280;7185;51.854;6.622;2023-04-25T07:28:05;100998.28;;;10.92;66.42
14204;BME280;7185;51.854;6.622;2023-04-25T07:30:38;100996.50;;;10.95;66.37
14204;BME280;7185;51.854;6.622;2023-04-25T07:33:09;100998.19;;;10.98;65.48
14204;BME280;7185;51.854;6.622;2023-04-25T07:35:41;100999.94;;;10.99;64.53
14204;BME280;7185;51.854;6.622;2023-04-25T07:38:12;101000.94;;;10.90;65.03
14204;BME280;7185;51.854;6.622;2023-04-25T07:40:44;101002.72;;;10.88;65.28
14204;BME280;7185;51.854;6.622;2023-04-25T07:43:16;101010.00;;;11.30;65.15
14204;BME280;7185;51.854;6.622;2023-04-25T07:45:49;101006.63;;;11.22;64.92
14204;BME280;7185;51.854;6.622;2023-04-25T07:48:21;101016.09;;;11.34;64.87
14204;BME280;7185;51.854;6.622;2023-04-25T07:50:53;101012.31;;;11.50;64.37
14204;BME280;7185;51.854;6.622;2023-04-25T07:53:24;101019.22;;;11.59;65.30
14204;BME280;7185;51.854;6.622;2023-04-25T07:55:56;101022.38;;;11.78;65.07
14204;BME280;7185;51.854;6.622;2023-04-25T07:58:28;101019.44;;;12.00;62.41
14204;BME280;7185;51.854;6.622;2023-04-25T08:01:01;101015.50;;;12.24;62.27
14204;BME280;7185;51.854;6.622;2023-04-25T08:03:32;101026.44;;;12.48;60.19
14204;BME280;7185;51.854;6.622;2023-04-25T08:06:04;101028.97;;;12.54;58.97
14204;BME280;7185;51.854;6.622;2023-04-25T08:08:36;101028.56;;;12.74;57.64
14204;BME280;7185;51.854;6.622;2023-04-25T08:11:08;101034.28;;;12.51;56.21
14204;BME280;7185;51.854;6.622;2023-04-25T08:13:39;101035.06;;;12.56;57.33
14204;BME280;7185;51.854;6.622;2023-04-25T08:16:12;101041.03;;;12.64;56.51
14204;BME280;7185;51.854;6.622;2023-04-25T08:18:44;101040.25;;;12.61;55.63
14204;BME280;7185;51.854;6.622;2023-04-25T08:21:17;101049.56;;;12.75;56.38
14204;BME280;7185;51.854;6.622;2023-04-25T08:23:48;101043.50;;;13.14;56.24
14204;BME280;7185;51.854;6.622;2023-04-25T08:26:20;101046.41;;;13.43;55.39
14204;BME280;7185;51.854;6.622;2023-04-25T08:28:52;101049.88;;;13.45;54.69
14204;BME280;7185;51.854;6.622;2023-04-25T08:31:25;101053.94;;;13.19;54.27
14204;BME280;7185;51.854;6.622;2023-04-25T08:33:59;101060.28;;;13.51;54.18
14204;BME280;7185;51.854;6.622;2023-04-25T08:36:30;101057.47;;;13.18;55.24
14204;BME280;7185;51.854;6.622;2023-04-25T08:39:02;101058.03;;;13.73;53.97
14204;BME280;7185;51.854;6.622;2023-04-25T08:41:34;101058.38;;;14.28;53.92
14204;BME280;7185;51.854;6.622;2023-04-25T08:44:11;101064.66;;;14.24;50.71
14204;BME280;7185;51.854;6.622;2023-04-25T08:46:46;101072.63;;;13.86;49.28
14204;BME280;7185;51.854;6.622;2023-04-25T08:49:20;101071.38;;;14.01;50.86
14204;BME280;7185;51.854;6.622;2023-04-25T08:51:52;101075.94;;;14.29;49.35
14204;BME280;7185;51.854;6.622;2023-04-25T08:54:27;101065.44;;;14.28;48.62
14204;BME280;7185;51.854;6.622;2023-04-25T08:57:01;101068.28;;;14.53;48.24
14204;BME280;7185;51.854;6.622;2023-04-25T08:59:35;101070.09;;;14.51;48.61
14204;BME280;7185;51.854;6.622;2023-04-25T09:02:08;101077.91;;;14.21;49.53
14204;BME280;7185;51.854;6.622;2023-04-25T09:04:44;101088.59;;;13.80;47.73
14204;BME280;7185;51.854;6.622;2023-04-25T09:07:19;101091.88;;;13.90;49.94
14204;BME280;7185;51.854;6.622;2023-04-25T09:09:51;101095.97;;;13.66;49.40
14204;BME280;7185;51.854;6.622;2023-04-25T09:12:23;101098.50;;;13.70;49.54
14204;BME280;7185;51.854;6.622;2023-04-25T09:15:04;101096.06;;;13.61;49.63
14204;BME280;7185;51.854;6.622;2023-04-25T09:17:41;101109.50;;;13.49;49.14
14204;BME280;7185;51.854;6.622;2023-04-25T09:20:14;101124.31;;;13.11;50.63
14204;BME280;7185;51.854;6.622;2023-04-25T09:22:46;101120.75;;;13.13;51.29
14204;BME280;7185;51.854;6.622;2023-04-25T09:25:17;101137.16;;;12.32;54.69
14204;BME280;7185;51.854;6.622;2023-04-25T09:27:53;101136.41;;;11.66;55.99
14204;BME280;7185;51.854;6.622;2023-04-25T09:30:29;101161.00;;;11.60;56.40
14204;BME280;7185;51.854;6.622;2023-04-25T09:33:07;101170.00;;;11.41;58.25
14204;BME280;7185;51.854;6.622;2023-04-25T09:35:40;101177.28;;;11.17;59.59
14204;BME280;7185;51.854;6.622;2023-04-25T09:38:13;101174.81;;;11.03;61.21
14204;BME280;7185;51.854;6.622;2023-04-25T09:40:48;101172.22;;;11.00;60.83
14204;BME280;7185;51.854;6.622;2023-04-25T09:43:21;101165.94;;;11.16;59.66
14204;BME280;7185;51.854;6.622;2023-04-25T09:45:54;101169.44;;;11.15;59.18
14204;BME280;7185;51.854;6.622;2023-04-25T09:48:30;101158.69;;;11.37;59.63
14204;BME280;7185;51.854;6.622;2023-04-25T09:51:07;101171.59;;;11.53;60.26
14204;BME280;7185;51.854;6.622;2023-04-25T09:53:40;101163.50;;;11.68;58.38
14204;BME280;7185;51.854;6.622;2023-04-25T09:56:12;101167.84;;;11.72;57.42
14204;BME280;7185;51.854;6.622;2023-04-25T09:58:44;101174.91;;;11.67;58.04
14204;BME280;7185;51.854;6.622;2023-04-25T10:01:19;101173.00;;;11.78;57.79
14204;BME280;7185;51.854;6.622;2023-04-25T10:03:56;101178.00;;;11.99;57.83
14204;BME280;7185;51.854;6.622;2023-04-25T10:06:28;101178.44;;;11.64;54.84
14204;BME280;7185;51.854;6.622;2023-04-25T10:09:01;101182.56;;;11.86;54.60
14204;BME280;7185;51.854;6.622;2023-04-25T10:11:34;101187.47;;;12.10;54.20
14204;BME280;7185;51.854;6.622;2023-04-25T10:14:06;101182.94;;;12.20;53.00
14204;BME280;7185;51.854;6.622;2023-04-25T10:16:40;101179.88;;;12.47;53.90
14204;BME280;7185;51.854;6.622;2023-04-25T10:19:13;101181.44;;;12.58;52.73
14204;BME280;7185;51.854;6.622;2023-04-25T10:21:56;101184.97;;;13.06;50.99
14204;BME280;7185;51.854;6.622;2023-04-25T10:24:30;101184.34;;;12.93;50.92
14204;BME280;7185;51.854;6.622;2023-04-25T10:27:02;101183.75;;;13.22;47.59
14204;BME280;7185;51.854;6.622;2023-04-25T10:29:35;101181.81;;;13.32;48.58
14204;BME280;7185;51.854;6.622;2023-04-25T10:32:08;101173.88;;;13.78;49.17
14204;BME280;7185;51.854;6.622;2023-04-25T10:34:43;101186.16;;;14.16;46.75
14204;BME280;7185;51.854;6.622;2023-04-25T10:37:18;101182.31;;;14.64;45.19
14204;BME280;7185;51.854;6.622;2023-04-25T10:39:50;101179.00;;;15.24;47.52
14204;BME280;7185;51.854;6.622;2023-04-25T10:42:23;101181.78;;;16.09;45.91
14204;BME280;7185;51.854;6.622;2023-04-25T10:45:02;101181.03;;;16.84;40.61
14204;BME280;7185;51.854;6.622;2023-04-25T10:47:36;101188.34;;;17.74;41.21
14204;BME280;7185;51.854;6.622;2023-04-25T10:50:10;101194.78;;;16.96;38.33
14204;BME280;7185;51.854;6.622;2023-04-25T10:52:42;101199.06;;;16.19;39.61
14204;BME280;7185;51.854;6.622;2023-04-25T10:55:14;101199.22;;;15.25;40.74
14204;BME280;7185;51.854;6.622;2023-04-25T10:57:46;101202.06;;;14.86;42.71
14204;BME280;7185;51.854;6.622;2023-04-25T11:00:20;101195.94;;;14.47;42.20
14204;BME280;7185;51.854;6.622;2023-04-25T11:02:58;101195.44;;;13.95;42.50
14204;BME280;7185;51.854;6.622;2023-04-25T11:05:32;101190.06;;;14.00;43.12
14204;BME280;7185;51.854;6.622;2023-04-25T11:08:10;101185.91;;;13.88;44.41
14204;BME280;7185;51.854;6.622;2023-04-25T11:10:42;101185.13;;;13.84;42.96
14204;BME280;7185;51.854;6.622;2023-04-25T11:13:22;101180.88;;;14.16;43.00
14204;BME280;7185;51.854;6.622;2023-04-25T11:16:03;101197.13;;;13.57;44.04
14204;BME280;7185;51.854;6.622;2023-04-25T11:18:40;101201.88;;;13.39;46.02
14204;BME280;7185;51.854;6.622;2023-04-25T11:21:13;101189.31;;;13.07;46.13
14204;BME280;7185;51.854;6.622;2023-04-25T11:23:46;101197.78;;;13.23;48.48
14204;BME280;7185;51.854;6.622;2023-04-25T11:26:19;101186.41;;;13.22;49.74
14204;BME280;7185;51.854;6.622;2023-04-25T11:28:50;101192.78;;;13.11;49.24
14204;BME280;7185;51.854;6.622;2023-04-25T11:31:22;101198.56;;;13.30;49.76
14204;BME280;7185;51.854;6.622;2023-04-25T11:33:57;101190.81;;;13.20;48.24
14204;BME280;7185;51.854;6.622;2023-04-25T11:36:33;101191.66;;;13.22;47.56
14204;BME280;7185;51.854;6.622;2023-04-25T11:39:04;101198.47;;;13.34;47.35
14204;BME280;7185;51.854;6.622;2023-04-25T11:41:37;101195.66;;;13.44;46.45
14204;BME280;7185;51.854;6.622;2023-04-25T11:44:09;101179.53;;;14.34;45.49
14204;BME280;7185;51.854;6.622;2023-04-25T11:46:40;101171.66;;;15.04;43.78
14204;BME280;7185;51.854;6.622;2023-04-25T11:49:12;101175.38;;;16.16;43.03
14204;BME280;7185;51.854;6.622;2023-04-25T11:51:46;101176.28;;;17.19;42.30
14204;BME280;7185;51.854;6.622;2023-04-25T11:54:18;101179.16;;;17.61;40.64
14204;BME280;7185;51.854;6.622;2023-04-25T11:56:51;101191.34;;;17.17;40.73
14204;BME280;7185;51.854;6.622;2023-04-25T11:59:24;101189.91;;;16.03;42.01
14204;BME280;7185;51.854;6.622;2023-04-25T12:01:56;101202.41;;;15.05;42.69
14204;BME280;7185;51.854;6.622;2023-04-25T12:04:30;101192.69;;;15.07;44.41
14204;BME280;7185;51.854;6.622;2023-04-25T12:07:03;101203.25;;;15.07;43.35
14204;BME280;7185;51.854;6.622;2023-04-25T12:09:35;101197.41;;;14.59;44.24
14204;BME280;7185;51.854;6.622;2023-04-25T12:12:09;101199.31;;;14.53;44.77
14204;BME280;7185;51.854;6.622;2023-04-25T12:14:46;101220.34;;;13.39;45.19
14204;BME280;7185;51.854;6.622;2023-04-25T12:17:18;101224.06;;;13.26;46.12
14204;BME280;7185;51.854;6.622;2023-04-25T12:19:50;101208.44;;;13.17;46.72
14204;BME280;7185;51.854;6.622;2023-04-25T12:22:24;101211.47;;;13.44;45.94
14204;BME280;7185;51.854;6.622;2023-04-25T12:24:55;101205.41;;;14.20;46.18
14204;BME280;7185;51.854;6.622;2023-04-25T12:27:30;101204.88;;;14.78;43.26
14204;BME280;7185;51.854;6.622;2023-04-25T12:30:03;101206.28;;;15.56;41.10
14204;BME280;7185;51.854;6.622;2023-04-25T12:32:35;101205.16;;;16.75;40.81
14204;BME280;7185;51.854;6.622;2023-04-25T12:35:08;101203.75;;;17.88;37.69
14204;BME280;7185;51.854;6.622;2023-04-25T12:37:41;101198.44;;;18.55;35.68
14204;BME280;7185;51.854;6.622;2023-04-25T12:40:12;101192.19;;;18.76;35.15
14204;BME280;7185;51.854;6.622;2023-04-25T12:42:44;101194.69;;;19.21;33.06
14204;BME280;7185;51.854;6.622;2023-04-25T12:45:16;101198.41;;;18.34;33.74
14204;BME280;7185;51.854;6.622;2023-04-25T12:47:47;101202.75;;;18.14;34.76
14204;BME280;7185;51.854;6.622;2023-04-25T12:50:19;101199.97;;;17.94;35.84
14204;BME280;7185;51.854;6.622;2023-04-25T12:52:52;101193.34;;;18.06;33.76
14204;BME280;7185;51.854;6.622;2023-04-25T12:55:24;101201.69;;;17.73;33.62
14204;BME280;7185;51.854;6.622;2023-04-25T12:57:56;101201.28;;;17.60;34.85
14204;BME280;7185;51.854;6.622;2023-04-25T13:00:27;101184.91;;;17.94;34.09
14204;BME280;7185;51.854;6.622;2023-04-25T13:02:59;101197.38;;;16.97;35.04
14204;BME280;7185;51.854;6.622;2023-04-25T13:05:32;101201.28;;;16.85;36.55
14204;BME280;7185;51.854;6.622;2023-04-25T13:08:05;101203.03;;;16.33;37.49
14204;BME280;7185;51.854;6.622;2023-04-25T13:10:37;101201.72;;;16.19;36.84
14204;BME280;7185;51.854;6.622;2023-04-25T13:13:09;101208.16;;;15.82;36.95
14204;BME280;7185;51.854;6.622;2023-04-25T13:15:40;101209.63;;;15.92;36.91
14204;BME280;7185;51.854;6.622;2023-04-25T13:18:12;101201.28;;;16.05;36.98
14204;BME280;7185;51.854;6.622;2023-04-25T13:20:44;101210.91;;;16.36;37.20
14204;BME280;7185;51.854;6.622;2023-04-25T13:23:17;101214.66;;;16.29;36.90
14204;BME280;7185;51.854;6.622;2023-04-25T13:25:49;101220.09;;;15.96;36.69
14204;BME280;7185;51.854;6.622;2023-04-25T13:28:22;101217.41;;;15.36;38.13
14204;BME280;7185;51.854;6.622;2023-04-25T13:30:53;101230.88;;;14.93;41.56
14204;BME280;7185;51.854;6.622;2023-04-25T13:33:25;101242.59;;;14.45;44.16